sensor_id;sensor_type;location;lat;lon;timestamp;pressure;altitude;pressure_sealevel;temperature;humidity
12247;BME280;6186;52.022;4.692;2023-03-23T00:01:31;100249.69;;;12.72;100.00
12247;BME280;6186;52.022;4.692;2023-03-23T00:04:02;100246.19;;;12.72;100.00
12247;BME280;6186;52.022;4.692;2023-03-23T00:06:28;100249.69;;;12.72;100.00
12247;BME280;6186;52.022;4.692;2023-03-23T00:08:58;100244.41;;;12.72;100.00
12247;BME280;6186;52.022;4.692;2023-03-23T00:11:27;100237.44;;;12.71;100.00
12247;BME280;6186;52.022;4.692;2023-03-23T00:13:55;100227.06;;;12.67;100.00
12247;BME280;6186;52.022;4.692;2023-03-23T00:16:24;100239.22;;;12.71;100.00
12247;BME280;6186;52.022;4.692;2023-03-23T00:19:02;100228.84;;;12.66;100.00
12247;BME280;6186;52.022;4.692;2023-03-23T00:21:31;100239.13;;;12.72;100.00
12247;BME280;6186;52.022;4.692;2023-03-23T00:24:14;100222.50;;;12.70;100.00
12247;BME280;6186;52.022;4.692;2023-03-23T00:26:45;100212.81;;;12.71;100.00
12247;BME280;6186;52.022;4.692;2023-03-23T00:29:16;100226.88;;;12.71;100.00
12247;BME280;6186;52.022;4.692;2023-03-23T00:31:43;100216.31;;;12.71;100.00
12247;BME280;6186;52.022;4.692;2023-03-23T00:34:13;100205.81;;;12.70;100.00
12247;BME280;6186;52.022;4.692;2023-03-23T00:36:48;100207.53;;;12.71;100.00
12247;BME280;6186;52.022;4.692;2023-03-23T00:39:14;100213.75;;;12.70;100.00
12247;BME280;6186;52.022;4.692;2023-03-23T00:41:44;100215.44;;;12.71;100.00
12247;BME280;6186;52.022;4.692;2023-03-23T00:44:11;100200.72;;;12.65;100.00
12247;BME280;6186;52.022;4.692;2023-03-23T00:46:45;100201.38;;;12.70;100.00
12247;BME280;6186;52.022;4.692;2023-03-23T00:49:19;100181.19;;;12.69;100.00
12247;BME280;6186;52.022;4.692;2023-03-23T00:51:45;100189.19;;;12.68;100.00
12247;BME280;6186;52.022;4.692;2023-03-23T00:54:11;100201.44;;;12.69;100.00
12247;BME280;6186;52.022;4.692;2023-03-23T00:56:37;100192.81;;;12.65;100.00
12247;BME280;6186;52.022;4.692;2023-03-23T00:59:04;100191.88;;;12.66;100.00
12247;BME280;6186;52.022;4.692;2023-03-23T01:01:29;100205.03;;;12.68;100.00
12247;BME280;6186;52.022;4.692;2023-03-23T01:03:55;100210.34;;;12.66;100.00
12247;BME280;6186;52.022;4.692;2023-03-23T01:06:28;100213.00;;;12.66;100.00
12247;BME280;6186;52.022;4.692;2023-03-23T01:08:56;100202.44;;;12.66;100.00
12247;BME280;6186;52.022;4.692;2023-03-23T01:11:22;100171.03;;;12.60;100.00
12247;BME280;6186;52.022;4.692;2023-03-23T01:13:48;100179.59;;;12.65;100.00
12247;BME280;6186;52.022;4.692;2023-03-23T01:16:13;100164.63;;;12.66;100.00
12247;BME280;6186;52.022;4.692;2023-03-23T01:18:40;100170.81;;;12.65;100.00
12247;BME280;6186;52.022;4.692;2023-03-23T01:21:08;100169.97;;;12.64;100.00
12247;BME280;6186;52.022;4.692;2023-03-23T01:23:35;100162.91;;;12.65;100.00
12247;BME280;6186;52.022;4.692;2023-03-23T01:26:21;100173.47;;;12.65;100.00
12247;BME280;6186;52.022;4.692;2023-03-23T01:28:47;100156.13;;;12.59;100.00
12247;BME280;6186;52.022;4.692;2023-03-23T01:31:15;100162.81;;;12.66;100.00
12247;BME280;6186;52.022;4.692;2023-03-23T01:33:41;100150.75;;;12.61;100.00
12247;BME280;6186;52.022;4.692;2023-03-23T01:36:18;100155.84;;;12.65;100.00
12247;BME280;6186;52.022;4.692;2023-03-23T01:38:45;100168.19;;;12.65;100.00
12247;BME280;6186;52.022;4.692;2023-03-23T01:41:12;100159.41;;;12.64;100.00
12247;BME280;6186;52.022;4.692;2023-03-23T01:43:58;100162.97;;;12.63;100.00
12247;BME280;6186;52.022;4.692;2023-03-23T01:46:27;100160.47;;;12.60;100.00
12247;BME280;6186;52.022;4.692;2023-03-23T01:48:53;100149.78;;;12.63;100.00
12247;BME280;6186;52.022;4.692;2023-03-23T01:51:20;100148.84;;;12.64;100.00
12247;BME280;6186;52.022;4.692;2023-03-23T01:53:50;100140.91;;;12.64;100.00
12247;BME280;6186;52.022;4.692;2023-03-23T01:56:20;100140.91;;;12.64;100.00
12247;BME280;6186;52.022;4.692;2023-03-23T01:58:50;100135.63;;;12.64;100.00
12247;BME280;6186;52.022;4.692;2023-03-23T02:01:16;100143.50;;;12.66;100.00
12247;BME280;6186;52.022;4.692;2023-03-23T02:03:44;100143.50;;;12.66;100.00
12247;BME280;6186;52.022;4.692;2023-03-23T02:06:11;100146.97;;;12.66;100.00
12247;BME280;6186;52.022;4.692;2023-03-23T02:08:37;100141.94;;;12.62;100.00
12247;BME280;6186;52.022;4.692;2023-03-23T02:11:23;100152.34;;;12.65;100.00
12247;BME280;6186;52.022;4.692;2023-03-23T02:13:49;100144.50;;;12.63;100.00
12247;BME280;6186;52.022;4.692;2023-03-23T02:16:43;100148.91;;;12.63;100.00
12247;BME280;6186;52.022;4.692;2023-03-23T02:27:34;100153.47;;;12.59;100.00
12247;BME280;6186;52.022;4.692;2023-03-23T02:35:38;100134.88;;;12.62;100.00
12247;BME280;6186;52.022;4.692;2023-03-23T02:38:18;100140.06;;;12.64;100.00
12247;BME280;6186;52.022;4.692;2023-03-23T02:40:48;100138.28;;;12.64;100.00
12247;BME280;6186;52.022;4.692;2023-03-23T02:43:17;100119.16;;;12.59;100.00
12247;BME280;6186;52.022;4.692;2023-03-23T02:45:45;100143.63;;;12.63;100.00
12247;BME280;6186;52.022;4.692;2023-03-23T02:48:14;100128.66;;;12.63;100.00
12247;BME280;6186;52.022;4.692;2023-03-23T02:50:44;100126.00;;;12.63;100.00
12247;BME280;6186;52.022;4.692;2023-03-23T02:53:13;100128.91;;;12.57;100.00
12247;BME280;6186;52.022;4.692;2023-03-23T02:55:43;100141.00;;;12.63;100.00
12247;BME280;6186;52.022;4.692;2023-03-23T02:58:09;100131.28;;;12.63;100.00
12247;BME280;6186;52.022;4.692;2023-03-23T03:00:35;100130.31;;;12.66;100.00
12247;BME280;6186;52.022;4.692;2023-03-23T03:03:04;100136.41;;;12.66;100.00
12247;BME280;6186;52.022;4.692;2023-03-23T03:08:15;100133.78;;;12.66;100.00
12247;BME280;6186;52.022;4.692;2023-03-23T03:11:02;100138.16;;;12.67;100.00
12247;BME280;6186;52.022;4.692;2023-03-23T03:14:06;100133.75;;;12.68;100.00
12247;BME280;6186;52.022;4.692;2023-03-23T03:17:00;100115.25;;;12.68;100.00
12247;BME280;6186;52.022;4.692;2023-03-23T03:19:39;100126.72;;;12.67;100.00
12247;BME280;6186;52.022;4.692;2023-03-23T03:22:06;100123.22;;;12.66;100.00
12247;BME280;6186;52.022;4.692;2023-03-23T03:24:33;100137.38;;;12.65;100.00
12247;BME280;6186;52.022;4.692;2023-03-23T03:27:04;100120.59;;;12.66;100.00
12247;BME280;6186;52.022;4.692;2023-03-23T03:29:36;100119.78;;;12.64;100.00
12247;BME280;6186;52.022;4.692;2023-03-23T03:32:10;100114.75;;;12.60;100.00
12247;BME280;6186;52.022;4.692;2023-03-23T03:34:37;100116.31;;;12.64;100.00
12247;BME280;6186;52.022;4.692;2023-03-23T03:37:04;100121.72;;;12.61;100.00
12247;BME280;6186;52.022;4.692;2023-03-23T03:39:34;100125.38;;;12.58;100.00
12247;BME280;6186;52.022;4.692;2023-03-23T03:42:00;100113.34;;;12.51;100.00
12247;BME280;6186;52.022;4.692;2023-03-23T03:44:25;100121.28;;;12.51;100.00
12247;BME280;6186;52.022;4.692;2023-03-23T03:46:51;100119.66;;;12.49;100.00
12247;BME280;6186;52.022;4.692;2023-03-23T03:49:16;100129.34;;;12.48;100.00
12247;BME280;6186;52.022;4.692;2023-03-23T03:51:42;100119.84;;;12.44;100.00
12247;BME280;6186;52.022;4.692;2023-03-23T03:54:08;100129.53;;;12.44;100.00
12247;BME280;6186;52.022;4.692;2023-03-23T03:56:33;100142.78;;;12.42;100.00
12247;BME280;6186;52.022;4.692;2023-03-23T03:59:06;100137.53;;;12.42;100.00
12247;BME280;6186;52.022;4.692;2023-03-23T04:01:33;100129.66;;;12.41;100.00
12247;BME280;6186;52.022;4.692;2023-03-23T04:03:58;100129.75;;;12.39;100.00
12247;BME280;6186;52.022;4.692;2023-03-23T04:06:23;100124.66;;;12.35;100.00
12247;BME280;6186;52.022;4.692;2023-03-23T04:08:49;100146.72;;;12.34;100.00
12247;BME280;6186;52.022;4.692;2023-03-23T04:11:15;100129.88;;;12.36;100.00
12247;BME280;6186;52.022;4.692;2023-03-23T04:13:41;100143.84;;;12.38;100.00
12247;BME280;6186;52.022;4.692;2023-03-23T04:16:06;100143.13;;;12.35;100.00
12247;BME280;6186;52.022;4.692;2023-03-23T04:18:32;100134.41;;;12.32;100.00
12247;BME280;6186;52.022;4.692;2023-03-23T04:20:59;100137.75;;;12.38;100.00
12247;BME280;6186;52.022;4.692;2023-03-23T04:23:27;100153.56;;;12.38;100.00
12247;BME280;6186;52.022;4.692;2023-03-23T04:25:53;100147.44;;;12.37;100.00
12247;BME280;6186;52.022;4.692;2023-03-23T04:28:23;100157.97;;;12.37;100.00
12247;BME280;6186;52.022;4.692;2023-03-23T04:30:50;100159.75;;;12.37;100.00
12247;BME280;6186;52.022;4.692;2023-03-23T04:33:21;100169.41;;;12.38;100.00
12247;BME280;6186;52.022;4.692;2023-03-23T04:35:48;100155.47;;;12.34;100.00
12247;BME280;6186;52.022;4.692;2023-03-23T04:38:16;100161.41;;;12.39;100.00
12247;BME280;6186;52.022;4.692;2023-03-23T04:40:46;100169.41;;;12.38;100.00
12247;BME280;6186;52.022;4.692;2023-03-23T04:43:12;100182.78;;;12.33;100.00
12247;BME280;6186;52.022;4.692;2023-03-23T04:45:38;100194.94;;;12.37;100.00
12247;BME280;6186;52.022;4.692;2023-03-23T04:48:07;100184.44;;;12.36;100.00
12247;BME280;6186;52.022;4.692;2023-03-23T04:50:34;100202.97;;;12.34;100.00
12247;BME280;6186;52.022;4.692;2023-03-23T04:53:00;100198.75;;;12.30;100.00
12247;BME280;6186;52.022;4.692;2023-03-23T04:55:33;100174.22;;;12.28;100.00
12247;BME280;6186;52.022;4.692;2023-03-23T04:58:04;100179.69;;;12.23;100.00
12247;BME280;6186;52.022;4.692;2023-03-23T05:00:29;100188.66;;;12.19;100.00
12247;BME280;6186;52.022;4.692;2023-03-23T05:02:55;100186.88;;;12.20;100.00
12247;BME280;6186;52.022;4.692;2023-03-23T05:05:21;100183.50;;;12.16;100.00
12247;BME280;6186;52.022;4.692;2023-03-23T05:07:48;100204.66;;;12.15;100.00
12247;BME280;6186;52.022;4.692;2023-03-23T05:10:15;100202.94;;;12.14;100.00
12247;BME280;6186;52.022;4.692;2023-03-23T05:12:41;100198.66;;;12.11;100.00
12247;BME280;6186;52.022;4.692;2023-03-23T05:15:08;100199.53;;;12.12;100.00
12247;BME280;6186;52.022;4.692;2023-03-23T05:17:34;100197.84;;;12.09;100.00
12247;BME280;6186;52.022;4.692;2023-03-23T05:20:00;100197.94;;;12.08;100.00
12247;BME280;6186;52.022;4.692;2023-03-23T05:22:28;100205.13;;;12.04;100.00
12247;BME280;6186;52.022;4.692;2023-03-23T05:24:54;100206.88;;;12.04;100.00
12247;BME280;6186;52.022;4.692;2023-03-23T05:27:19;100203.41;;;12.03;100.00
12247;BME280;6186;52.022;4.692;2023-03-23T05:29:45;100204.31;;;12.02;100.00
12247;BME280;6186;52.022;4.692;2023-03-23T05:32:14;100214.00;;;12.02;100.00
12247;BME280;6186;52.022;4.692;2023-03-23T05:34:39;100215.84;;;12.00;100.00
12247;BME280;6186;52.022;4.692;2023-03-23T05:37:05;100226.38;;;12.00;100.00
12247;BME280;6186;52.022;4.692;2023-03-23T05:39:31;100233.41;;;12.01;100.00
12247;BME280;6186;52.022;4.692;2023-03-23T05:41:57;100235.09;;;12.02;100.00
12247;BME280;6186;52.022;4.692;2023-03-23T05:44:23;100235.09;;;12.02;100.00
12247;BME280;6186;52.022;4.692;2023-03-23T05:46:49;100235.97;;;12.02;100.00
12247;BME280;6186;52.022;4.692;2023-03-23T05:49:15;100221.25;;;11.97;100.00
12247;BME280;6186;52.022;4.692;2023-03-23T05:51:45;100228.25;;;11.98;100.00
12247;BME280;6186;52.022;4.692;2023-03-23T05:54:15;100245.72;;;12.00;100.00
12247;BME280;6186;52.022;4.692;2023-03-23T05:56:41;100254.56;;;11.99;100.00
12247;BME280;6186;52.022;4.692;2023-03-23T05:59:06;100246.59;;;12.01;100.00
12247;BME280;6186;52.022;4.692;2023-03-23T06:01:32;100243.22;;;11.97;100.00
12247;BME280;6186;52.022;4.692;2023-03-23T06:03:58;100256.28;;;12.00;100.00
12247;BME280;6186;52.022;4.692;2023-03-23T06:06:25;100256.34;;;11.99;100.00
12247;BME280;6186;52.022;4.692;2023-03-23T06:08:51;100252.91;;;11.97;100.00
12247;BME280;6186;52.022;4.692;2023-03-23T06:11:17;100253.84;;;11.96;100.00
12247;BME280;6186;52.022;4.692;2023-03-23T06:13:42;100253.88;;;11.94;100.00
12247;BME280;6186;52.022;4.692;2023-03-23T06:16:08;100252.25;;;11.92;100.00
12247;BME280;6186;52.022;4.692;2023-03-23T06:18:34;100266.22;;;11.94;100.00
12247;BME280;6186;52.022;4.692;2023-03-23T06:21:02;100274.13;;;11.94;100.00
12247;BME280;6186;52.022;4.692;2023-03-23T06:23:29;100268.06;;;11.92;100.00
12247;BME280;6186;52.022;4.692;2023-03-23T06:25:58;100276.81;;;11.92;100.00
12247;BME280;6186;52.022;4.692;2023-03-23T06:28:24;100281.19;;;11.93;100.00
12247;BME280;6186;52.022;4.692;2023-03-23T06:30:50;100278.53;;;11.93;100.00
12247;BME280;6186;52.022;4.692;2023-03-23T06:33:16;100292.59;;;11.94;100.00
12247;BME280;6186;52.022;4.692;2023-03-23T06:35:42;100287.31;;;11.94;100.00
12247;BME280;6186;52.022;4.692;2023-03-23T06:38:08;100281.25;;;11.92;100.00
12247;BME280;6186;52.022;4.692;2023-03-23T06:40:35;100277.56;;;11.96;100.00
12247;BME280;6186;52.022;4.692;2023-03-23T06:43:01;100289.81;;;11.97;100.00
12247;BME280;6186;52.022;4.692;2023-03-23T06:45:28;100285.41;;;11.97;100.00
12247;BME280;6186;52.022;4.692;2023-03-23T06:47:53;100295.03;;;11.98;100.00
12247;BME280;6186;52.022;4.692;2023-03-23T06:50:18;100291.56;;;11.98;100.00
12247;BME280;6186;52.022;4.692;2023-03-23T06:52:48;100301.19;;;11.99;100.00
12247;BME280;6186;52.022;4.692;2023-03-23T06:55:14;100296.03;;;11.96;100.00
12247;BME280;6186;52.022;4.692;2023-03-23T06:57:41;100300.25;;;12.00;100.00
12247;BME280;6186;52.022;4.692;2023-03-23T07:00:08;100300.31;;;11.98;100.00
12247;BME280;6186;52.022;4.692;2023-03-23T07:02:36;100295.09;;;11.97;100.00
12247;BME280;6186;52.022;4.692;2023-03-23T07:05:01;100303.00;;;11.97;100.00
12247;BME280;6186;52.022;4.692;2023-03-23T07:07:29;100303.81;;;11.99;100.00
12247;BME280;6186;52.022;4.692;2023-03-23T07:09:54;100297.59;;;12.00;100.00
12247;BME280;6186;52.022;4.692;2023-03-23T07:12:20;100311.59;;;12.02;100.00
12247;BME280;6186;52.022;4.692;2023-03-23T07:14:46;100304.56;;;12.02;100.00
12247;BME280;6186;52.022;4.692;2023-03-23T07:17:12;100309.81;;;12.02;100.00
12247;BME280;6186;52.022;4.692;2023-03-23T07:19:38;100288.72;;;12.02;100.00
12247;BME280;6186;52.022;4.692;2023-03-23T07:22:05;100315.16;;;12.01;100.00
12247;BME280;6186;52.022;4.692;2023-03-23T07:24:31;100320.44;;;12.01;100.00
12247;BME280;6186;52.022;4.692;2023-03-23T07:26:56;100320.38;;;12.02;100.00
12247;BME280;6186;52.022;4.692;2023-03-23T07:29:22;100322.94;;;12.04;100.00
12247;BME280;6186;52.022;4.692;2023-03-23T07:31:47;100322.84;;;12.07;100.00
12247;BME280;6186;52.022;4.692;2023-03-23T07:34:12;100312.00;;;12.14;100.00
12247;BME280;6186;52.022;4.692;2023-03-23T07:36:38;100300.69;;;12.11;100.00
12247;BME280;6186;52.022;4.692;2023-03-23T07:39:05;100304.06;;;12.14;100.00
12247;BME280;6186;52.022;4.692;2023-03-23T07:41:33;100309.28;;;12.16;100.00
12247;BME280;6186;52.022;4.692;2023-03-23T07:43:59;100307.63;;;12.13;100.00
12247;BME280;6186;52.022;4.692;2023-03-23T07:46:24;100321.81;;;12.11;100.00
12247;BME280;6186;52.022;4.692;2023-03-23T07:48:50;100327.97;;;12.10;100.00
12247;BME280;6186;52.022;4.692;2023-03-23T07:51:16;100331.19;;;12.18;100.00
12247;BME280;6186;52.022;4.692;2023-03-23T07:53:44;100331.69;;;12.27;100.00
12247;BME280;6186;52.022;4.692;2023-03-23T07:56:11;100340.25;;;12.32;100.00
12247;BME280;6186;52.022;4.692;2023-03-23T07:58:37;100348.00;;;12.37;100.00
12247;BME280;6186;52.022;4.692;2023-03-23T08:01:03;100326.16;;;12.34;100.00
12247;BME280;6186;52.022;4.692;2023-03-23T08:03:28;100349.63;;;12.40;100.00
12247;BME280;6186;52.022;4.692;2023-03-23T08:05:57;100346.97;;;12.41;100.00
12247;BME280;6186;52.022;4.692;2023-03-23T08:08:24;100344.31;;;12.41;100.00
12247;BME280;6186;52.022;4.692;2023-03-23T08:10:49;100332.97;;;12.39;100.00
12247;BME280;6186;52.022;4.692;2023-03-23T08:13:15;100346.91;;;12.43;100.00
12247;BME280;6186;52.022;4.692;2023-03-23T08:15:40;100347.88;;;12.40;100.00
12247;BME280;6186;52.022;4.692;2023-03-23T08:18:06;100347.75;;;12.43;100.00
12247;BME280;6186;52.022;4.692;2023-03-23T08:20:32;100355.22;;;12.54;100.00
12247;BME280;6186;52.022;4.692;2023-03-23T08:22:58;100347.00;;;12.61;100.00
12247;BME280;6186;52.022;4.692;2023-03-23T08:25:24;100363.19;;;12.74;100.00
12247;BME280;6186;52.022;4.692;2023-03-23T08:27:51;100371.16;;;12.94;100.00
12247;BME280;6186;52.022;4.692;2023-03-23T08:30:19;100357.09;;;13.13;100.00
12247;BME280;6186;52.022;4.692;2023-03-23T08:32:45;100368.47;;;13.36;100.00
12247;BME280;6186;52.022;4.692;2023-03-23T08:35:13;100352.53;;;13.37;100.00
12247;BME280;6186;52.022;4.692;2023-03-23T08:37:40;100351.56;;;13.40;100.00
12247;BME280;6186;52.022;4.692;2023-03-23T08:40:08;100366.34;;;13.44;100.00
12247;BME280;6186;52.022;4.692;2023-03-23T08:42:37;100370.84;;;13.42;100.00
12247;BME280;6186;52.022;4.692;2023-03-23T08:45:05;100378.63;;;13.45;100.00
12247;BME280;6186;52.022;4.692;2023-03-23T08:47:32;100372.41;;;13.46;100.00
12247;BME280;6186;52.022;4.692;2023-03-23T08:49:57;100365.00;;;13.54;100.00
12247;BME280;6186;52.022;4.692;2023-03-23T08:52:23;100382.81;;;13.69;100.00
12247;BME280;6186;52.022;4.692;2023-03-23T08:54:48;100378.13;;;13.75;100.00
12247;BME280;6186;52.022;4.692;2023-03-23T08:57:14;100381.56;;;13.77;100.00
12247;BME280;6186;52.022;4.692;2023-03-23T08:59:40;100386.00;;;13.77;100.00
12247;BME280;6186;52.022;4.692;2023-03-23T09:02:09;100382.06;;;13.85;100.00
12247;BME280;6186;52.022;4.692;2023-03-23T09:04:35;100388.00;;;14.09;100.00
12247;BME280;6186;52.022;4.692;2023-03-23T09:07:01;100382.88;;;14.43;100.00
12247;BME280;6186;52.022;4.692;2023-03-23T09:09:27;100377.25;;;14.68;100.00
12247;BME280;6186;52.022;4.692;2023-03-23T09:11:53;100379.22;;;14.81;100.00
12247;BME280;6186;52.022;4.692;2023-03-23T09:14:19;100370.31;;;14.99;100.00
12247;BME280;6186;52.022;4.692;2023-03-23T09:16:44;100380.16;;;15.32;100.00
12247;BME280;6186;52.022;4.692;2023-03-23T09:19:11;100381.84;;;15.67;100.00
12247;BME280;6186;52.022;4.692;2023-03-23T09:21:38;100373.50;;;15.90;100.00
12247;BME280;6186;52.022;4.692;2023-03-23T09:24:04;100370.31;;;15.83;100.00
12247;BME280;6186;52.022;4.692;2023-03-23T09:26:31;100376.41;;;15.85;100.00
12247;BME280;6186;52.022;4.692;2023-03-23T09:28:57;100372.88;;;15.85;100.00
12247;BME280;6186;52.022;4.692;2023-03-23T09:31:23;100376.78;;;15.95;100.00
12247;BME280;6186;52.022;4.692;2023-03-23T09:33:52;100384.66;;;16.12;100.00
12247;BME280;6186;52.022;4.692;2023-03-23T09:36:18;100378.31;;;16.30;100.00
12247;BME280;6186;52.022;4.692;2023-03-23T09:38:46;100391.03;;;16.56;100.00
12247;BME280;6186;52.022;4.692;2023-03-23T09:47:12;100401.66;;;16.56;100.00
12247;BME280;6186;52.022;4.692;2023-03-23T09:49:45;100405.97;;;16.88;100.00
12247;BME280;6186;52.022;4.692;2023-03-23T09:52:15;100402.94;;;16.80;100.00
12247;BME280;6186;52.022;4.692;2023-03-23T09:54:44;100407.41;;;16.49;100.00
12247;BME280;6186;52.022;4.692;2023-03-23T09:57:36;100417.94;;;16.50;100.00
12247;BME280;6186;52.022;4.692;2023-03-23T10:00:20;100417.16;;;17.09;100.00
12247;BME280;6186;52.022;4.692;2023-03-23T10:02:55;100418.75;;;17.57;100.00
12247;BME280;6186;52.022;4.692;2023-03-23T10:05:37;100425.81;;;18.00;100.00
12247;BME280;6186;52.022;4.692;2023-03-23T10:08:16;100419.63;;;18.14;100.00
12247;BME280;6186;52.022;4.692;2023-03-23T10:11:01;100425.47;;;17.92;100.00
12247;BME280;6186;52.022;4.692;2023-03-23T10:16:24;100418.84;;;17.55;100.00
12247;BME280;6186;52.022;4.692;2023-03-23T10:22:02;100427.69;;;16.81;100.00
12247;BME280;6186;52.022;4.692;2023-03-23T10:24:54;100427.00;;;16.62;100.00
12247;BME280;6186;52.022;4.692;2023-03-23T10:35:51;100429.06;;;15.43;100.00
12247;BME280;6186;52.022;4.692;2023-03-23T10:38:26;100433.59;;;15.41;100.00
12247;BME280;6186;52.022;4.692;2023-03-23T10:40:57;100427.81;;;15.50;100.00
12247;BME280;6186;52.022;4.692;2023-03-23T10:43:24;100422.88;;;15.60;100.00
12247;BME280;6186;52.022;4.692;2023-03-23T10:46:01;100426.47;;;15.76;100.00
12247;BME280;6186;52.022;4.692;2023-03-23T10:48:37;100439.56;;;15.79;100.00
12247;BME280;6186;52.022;4.692;2023-03-23T10:51:05;100420.78;;;16.15;100.00
12247;BME280;6186;52.022;4.692;2023-03-23T10:53:42;100431.53;;;17.07;100.00
12247;BME280;6186;52.022;4.692;2023-03-23T10:56:35;100437.59;;;17.96;100.00
12247;BME280;6186;52.022;4.692;2023-03-23T10:59:15;100437.22;;;18.02;100.00
12247;BME280;6186;52.022;4.692;2023-03-23T11:01:44;100437.59;;;17.68;100.00
12247;BME280;6186;52.022;4.692;2023-03-23T11:04:15;100419.44;;;17.31;100.00
12247;BME280;6186;52.022;4.692;2023-03-23T11:07:01;100416.19;;;17.55;100.00
12247;BME280;6186;52.022;4.692;2023-03-23T11:09:37;100425.94;;;17.84;100.00
12247;BME280;6186;52.022;4.692;2023-03-23T11:12:04;100419.03;;;18.37;100.00
12247;BME280;6186;52.022;4.692;2023-03-23T11:14:32;100430.00;;;19.26;100.00
12247;BME280;6186;52.022;4.692;2023-03-23T11:17:18;100436.09;;;20.18;100.00
12247;BME280;6186;52.022;4.692;2023-03-23T11:19:45;100429.09;;;20.77;100.00
12247;BME280;6186;52.022;4.692;2023-03-23T11:22:19;100424.03;;;20.85;100.00
12247;BME280;6186;52.022;4.692;2023-03-23T11:24:49;100425.59;;;20.40;100.00
12247;BME280;6186;52.022;4.692;2023-03-23T11:27:17;100420.47;;;19.74;100.00
12247;BME280;6186;52.022;4.692;2023-03-23T11:29:56;100408.59;;;19.40;100.00
12247;BME280;6186;52.022;4.692;2023-03-23T11:32:26;100421.97;;;18.87;100.00
12247;BME280;6186;52.022;4.692;2023-03-23T11:35:01;100409.81;;;18.42;100.00
12247;BME280;6186;52.022;4.692;2023-03-23T11:37:45;100409.03;;;18.40;100.00
12247;BME280;6186;52.022;4.692;2023-03-23T11:40:17;100413.03;;;18.47;100.00
12247;BME280;6186;52.022;4.692;2023-03-23T11:42:59;100408.97;;;18.83;100.00
12247;BME280;6186;52.022;4.692;2023-03-23T11:45:37;100412.34;;;19.50;100.00
12247;BME280;6186;52.022;4.692;2023-03-23T11:48:18;100424.31;;;20.20;100.00
12247;BME280;6186;52.022;4.692;2023-03-23T11:50:54;100411.47;;;20.74;100.00
12247;BME280;6186;52.022;4.692;2023-03-23T11:56:00;100405.34;;;21.65;100.00
12247;BME280;6186;52.022;4.692;2023-03-23T11:58:26;100416.28;;;21.97;100.00
12247;BME280;6186;52.022;4.692;2023-03-23T12:01:04;100418.00;;;22.20;100.00
12247;BME280;6186;52.022;4.692;2023-03-23T12:03:48;100418.34;;;22.04;100.00
12247;BME280;6186;52.022;4.692;2023-03-23T12:06:34;100408.53;;;21.59;100.00
12247;BME280;6186;52.022;4.692;2023-03-23T12:09:35;100405.75;;;20.55;100.00
12247;BME280;6186;52.022;4.692;2023-03-23T12:15:08;100408.50;;;19.92;100.00
12247;BME280;6186;52.022;4.692;2023-03-23T12:20:32;100397.88;;;19.28;100.00
12247;BME280;6186;52.022;4.692;2023-03-23T12:31:15;100395.25;;;18.34;100.00
12247;BME280;6186;52.022;4.692;2023-03-23T12:44:35;100405.75;;;17.07;100.00
12247;BME280;6186;52.022;4.692;2023-03-23T12:49:45;100394.22;;;16.92;100.00
12247;BME280;6186;52.022;4.692;2023-03-23T12:52:41;100400.53;;;17.35;100.00
12247;BME280;6186;52.022;4.692;2023-03-23T12:55:27;100388.41;;;18.44;100.00
12247;BME280;6186;52.022;4.692;2023-03-23T12:58:07;100392.72;;;19.12;100.00
12247;BME280;6186;52.022;4.692;2023-03-23T13:06:09;100407.22;;;18.82;100.00
12247;BME280;6186;52.022;4.692;2023-03-23T13:11:20;100408.88;;;18.29;100.00
12247;BME280;6186;52.022;4.692;2023-03-23T13:16:26;100395.00;;;17.82;100.00
12247;BME280;6186;52.022;4.692;2023-03-23T13:22:28;100390.25;;;17.73;100.00
12247;BME280;6186;52.022;4.692;2023-03-23T13:24:37;100412.88;;;17.94;100.00
12247;BME280;6186;52.022;4.692;2023-03-23T13:27:04;100403.56;;;17.87;100.00
12247;BME280;6186;52.022;4.692;2023-03-23T13:29:32;100409.47;;;17.78;100.00
12247;BME280;6186;52.022;4.692;2023-03-23T13:32:18;100399.34;;;17.55;100.00
12247;BME280;6186;52.022;4.692;2023-03-23T13:34:46;100407.47;;;17.38;100.00
12247;BME280;6186;52.022;4.692;2023-03-23T13:37:24;100420.25;;;17.17;100.00
12247;BME280;6186;52.022;4.692;2023-03-23T13:39:53;100431.00;;;17.00;100.00
12247;BME280;6186;52.022;4.692;2023-03-23T13:42:33;100423.31;;;16.96;100.00
12247;BME280;6186;52.022;4.692;2023-03-23T13:51:04;100418.44;;;17.18;100.00
12247;BME280;6186;52.022;4.692;2023-03-23T13:53:48;100411.13;;;17.21;100.00
12247;BME280;6186;52.022;4.692;2023-03-23T13:56:25;100396.81;;;17.38;100.00
12247;BME280;6186;52.022;4.692;2023-03-23T13:59:15;100402.38;;;17.49;100.00
12247;BME280;6186;52.022;4.692;2023-03-23T14:01:41;100404.78;;;17.53;100.00
12247;BME280;6186;52.022;4.692;2023-03-23T14:04:13;100390.75;;;17.65;100.00
12247;BME280;6186;52.022;4.692;2023-03-23T14:06:40;100376.28;;;17.69;100.00
12247;BME280;6186;52.022;4.692;2023-03-23T14:09:37;100403.38;;;17.76;100.00
12247;BME280;6186;52.022;4.692;2023-03-23T14:12:14;100388.91;;;17.66;100.00
12247;BME280;6186;52.022;4.692;2023-03-23T14:14:45;100380.72;;;17.55;100.00
12247;BME280;6186;52.022;4.692;2023-03-23T14:17:21;100389.47;;;17.57;100.00
12247;BME280;6186;52.022;4.692;2023-03-23T14:19:50;100398.63;;;17.67;100.00
12247;BME280;6186;52.022;4.692;2023-03-23T14:22:23;100382.66;;;17.67;100.00
12247;BME280;6186;52.022;4.692;2023-03-23T14:24:49;100380.09;;;17.65;100.00
12247;BME280;6186;52.022;4.692;2023-03-23T14:27:20;100362.38;;;17.64;100.00
12247;BME280;6186;52.022;4.692;2023-03-23T14:29:57;100366.56;;;17.68;100.00
12247;BME280;6186;52.022;4.692;2023-03-23T14:32:23;100317.41;;;17.46;100.00